Time;durP1;ratioP1;P1;durP2;ratioP2;P2;SDS_P1;SDS_P2;PMS_P1;PMS_P2;Temp;Humidity;BMP_temperature;BMP_pressure;BME280_temperature;BME280_humidity;BME280_pressure;Samples;Min_cycle;Max_cycle;Signal;HPM_P1;HPM_P2
2023/05/26 00:00:12;;;;;;;7.63;3.10;;;13.50;99.90;;;;;;5058085;28;20460;-69
2023/05/26 00:02:39;;;;;;;18.40;3.80;;;;;;;;;;5057153;28;20551;-70
2023/05/26 00:05:09;;;;;;;22.43;3.20;;;14.50;99.90;;;;;;5058709;28;20488;-68
2023/05/26 00:07:39;;;;;;;15.30;3.50;;;14.70;99.90;;;;;;5059997;28;20449;-63
2023/05/26 00:10:12;;;;;;;17.33;3.33;;;14.60;99.90;;;;;;5060031;28;20487;-60
2023/05/26 00:12:39;;;;;;;12.90;2.80;;;14.50;99.90;;;;;;5060247;28;20456;-60
2023/05/26 00:15:07;;;;;;;9.43;3.00;;;;;;;;;;5059959;28;20440;-66
2023/05/26 00:17:36;;;;;;;13.90;3.07;;;;;;;;;;5060842;28;20455;-67
2023/05/26 00:20:04;;;;;;;10.60;3.43;;;;;;;;;;5060818;28;20427;-64
2023/05/26 00:22:34;;;;;;;10.43;3.67;;;14.40;99.90;;;;;;5058159;28;20421;-67
2023/05/26 00:25:01;;;;;;;10.53;4.27;;;;;;;;;;5059498;28;20471;-63
2023/05/26 00:27:28;;;;;;;10.67;3.03;;;;;;;;;;5059506;28;20436;-65
2023/05/26 00:29:58;;;;;;;13.63;3.53;;;;;;;;;;5058949;28;20455;-69
2023/05/26 00:32:25;;;;;;;12.03;4.80;;;;;;;;;;5057791;28;20482;-64
2023/05/26 00:34:52;;;;;;;12.60;3.77;;;;;;;;;;5058757;28;20439;-69
2023/05/26 00:37:19;;;;;;;18.50;3.97;;;;;;;;;;5057334;28;20444;-61
2023/05/26 00:39:47;;;;;;;6.93;3.50;;;14.10;99.90;;;;;;5058493;28;20923;-60
2023/05/26 00:42:15;;;;;;;4.77;2.53;;;;;;;;;;5059267;28;20451;-67
2023/05/26 00:44:42;;;;;;;4.67;2.70;;;;;;;;;;5058803;28;20491;-66
2023/05/26 00:47:09;;;;;;;16.23;3.87;;;;;;;;;;5058635;28;20481;-66
2023/05/26 00:49:36;;;;;;;12.57;4.10;;;;;;;;;;5059382;28;20440;-64
2023/05/26 00:52:04;;;;;;;20.07;3.53;;;13.80;99.90;;;;;;5057135;28;20463;-65
2023/05/26 00:54:32;;;;;;;14.90;4.47;;;;;;;;;;5058504;28;20436;-65
2023/05/26 00:57:00;;;;;;;9.67;3.20;;;13.80;99.90;;;;;;5058239;28;20519;-71
2023/05/26 00:59:28;;;;;;;7.67;3.07;;;;;;;;;;5057829;28;20458;-63
2023/05/26 01:01:56;;;;;;;15.03;3.63;;;13.80;99.90;;;;;;5057067;28;20468;-68
2023/05/26 01:04:24;;;;;;;10.10;3.63;;;;;;;;;;5057733;28;20467;-64
2023/05/26 01:06:52;;;;;;;11.60;4.33;;;;;;;;;;5057654;28;20459;-67
2023/05/26 01:09:19;;;;;;;11.83;3.50;;;;;;;;;;5057975;28;20444;-69
2023/05/26 01:11:51;;;;;;;10.67;3.90;;;13.70;99.90;;;;;;5057326;28;20470;-65
2023/05/26 01:14:26;;;;;;;8.97;4.50;;;13.50;99.90;;;;;;5056694;28;20421;-70
2023/05/26 01:17:01;;;;;;;9.23;3.00;;;13.60;99.90;;;;;;5056974;28;20475;-67
2023/05/26 01:19:56;;;;;;;9.10;3.00;;;13.50;99.90;;;;;;5056545;28;20440;-69
2023/05/26 01:22:33;;;;;;;6.43;2.83;;;13.50;99.90;;;;;;5050557;28;20468;-66
2023/05/26 01:25:12;;;;;;;14.00;3.60;;;13.40;99.90;;;;;;5057015;28;20463;-65
2023/05/26 01:27:49;;;;;;;9.30;2.70;;;13.50;99.90;;;;;;5057190;28;20451;-69
2023/05/26 01:30:18;;;;;;;9.33;3.73;;;13.30;99.90;;;;;;5057590;28;20415;-65
2023/05/26 01:32:48;;;;;;;14.40;2.80;;;13.20;99.90;;;;;;5057856;28;20476;-67
2023/05/26 01:35:15;;;;;;;9.97;4.93;;;;;;;;;;5056990;28;20428;-65
2023/05/26 01:37:43;;;;;;;8.87;3.90;;;;;;;;;;5056857;28;20483;-67
2023/05/26 01:40:11;;;;;;;10.07;4.17;;;13.30;99.90;;;;;;5057649;28;20453;-66
2023/05/26 01:42:43;;;;;;;10.90;3.97;;;13.30;99.90;;;;;;5057181;28;20472;-66
2023/05/26 01:45:14;;;;;;;14.33;3.30;;;13.10;99.90;;;;;;5056992;28;20475;-68
2023/05/26 01:47:46;;;;;;;20.33;3.67;;;13.20;99.90;;;;;;5056688;28;20518;-69
2023/05/26 01:50:14;;;;;;;5.70;2.80;;;13.10;99.90;;;;;;5057518;28;20431;-65
2023/05/26 01:52:44;;;;;;;16.23;3.23;;;13.10;99.90;;;;;;5056815;28;20461;-64
2023/05/26 01:55:12;;;;;;;17.37;3.50;;;13.00;99.90;;;;;;5056697;28;20432;-73
2023/05/26 01:57:42;;;;;;;16.10;3.67;;;13.10;99.90;;;;;;5056491;28;20464;-69
2023/05/26 02:00:11;;;;;;;14.53;3.40;;;13.20;99.90;;;;;;5056851;28;20436;-67
2023/05/26 02:02:39;;;;;;;14.53;4.00;;;;;;;;;;5056240;28;20468;-69
2023/05/26 02:05:08;;;;;;;7.33;3.10;;;13.00;99.90;;;;;;5056834;28;20498;-65
2023/05/26 02:07:37;;;;;;;9.93;3.47;;;13.10;99.90;;;;;;5056416;28;20467;-67
2023/05/26 02:10:04;;;;;;;12.57;4.27;;;;;;;;;;5056708;28;20428;-65
2023/05/26 02:12:33;;;;;;;7.60;3.90;;;;;;;;;;5056509;28;20428;-66
2023/05/26 02:15:01;;;;;;;17.77;5.40;;;;;;;;;;5057126;28;20420;-66
2023/05/26 02:17:28;;;;;;;13.97;3.70;;;;;;;;;;5056891;28;20448;-63
2023/05/26 02:19:55;;;;;;;4.27;2.57;;;;;;;;;;5056557;28;20439;-66
2023/05/26 02:22:30;;;;;;;10.10;4.13;;;12.80;99.90;;;;;;5056011;28;20450;-64
2023/05/26 02:24:57;;;;;;;32.37;4.67;;;;;;;;;;5057045;28;20452;-66
2023/05/26 02:27:24;;;;;;;10.97;3.20;;;;;;;;;;5056710;28;20463;-63
2023/05/26 02:29:52;;;;;;;9.60;3.10;;;;;;;;;;5056078;28;20455;-65
2023/05/26 02:32:26;;;;;;;17.23;3.57;;;;;;;;;;5056244;28;20448;-66
2023/05/26 02:34:56;;;;;;;8.23;2.90;;;;;;;;;;5056373;28;20455;-66
2023/05/26 02:37:26;;;;;;;17.27;4.37;;;12.80;99.90;;;;;;5056083;28;20455;-64
2023/05/26 02:39:53;;;;;;;21.10;4.27;;;;;;;;;;5053983;28;20424;-67
2023/05/26 02:42:20;;;;;;;6.77;3.37;;;;;;;;;;5055932;28;20452;-67
2023/05/26 02:44:48;;;;;;;11.53;3.83;;;;;;;;;;5055945;28;20483;-62
2023/05/26 02:47:15;;;;;;;12.17;4.43;;;;;;;;;;5056473;28;20444;-69
2023/05/26 02:49:43;;;;;;;10.37;2.73;;;;;;;;;;5055811;28;20528;-65
2023/05/26 02:52:10;;;;;;;4.97;3.60;;;;;;;;;;5056211;28;20467;-62
2023/05/26 02:54:39;;;;;;;12.47;3.90;;;12.50;99.90;;;;;;5056387;28;20524;-63
2023/05/26 02:57:07;;;;;;;18.63;3.97;;;;;;;;;;5056386;28;20500;-65
2023/05/26 02:59:34;;;;;;;15.77;4.40;;;;;;;;;;5055011;28;20467;-70
2023/05/26 03:02:01;;;;;;;8.60;3.70;;;;;;;;;;5054212;28;20503;-69
2023/05/26 03:04:28;;;;;;;12.20;5.07;;;;;;;;;;5056653;28;20475;-66
2023/05/26 03:06:55;;;;;;;9.90;3.40;;;;;;;;;;5055968;28;20425;-66
2023/05/26 03:09:23;;;;;;;19.10;4.80;;;;;;;;;;5055916;28;20511;-67
2023/05/26 03:11:51;;;;;;;27.67;5.53;;;12.40;99.90;;;;;;5055551;28;20565;-68
2023/05/26 03:14:20;;;;;;;15.27;5.93;;;;;;;;;;5058189;28;20468;-66
2023/05/26 03:16:47;;;;;;;16.93;3.47;;;;;;;;;;5060223;28;20459;-66
2023/05/26 03:19:17;;;;;;;11.30;4.27;;;12.30;99.90;;;;;;5060143;28;20480;-67
2023/05/26 03:21:47;;;;;;;9.30;3.67;;;12.60;99.90;;;;;;5058914;28;20455;-66
2023/05/26 03:24:14;;;;;;;7.00;3.10;;;;;;;;;;5060324;28;20472;-61
2023/05/26 03:26:44;;;;;;;6.37;3.17;;;;;;;;;;5060334;28;20475;-67
2023/05/26 03:29:13;;;;;;;13.40;4.37;;;;;;;;;;5059844;28;20482;-66
2023/05/26 03:31:41;;;;;;;15.33;4.37;;;12.30;99.90;;;;;;5059254;28;20444;-64
2023/05/26 03:34:08;;;;;;;12.43;4.03;;;;;;;;;;5060199;28;20447;-64
2023/05/26 03:36:36;;;;;;;13.40;4.33;;;;;;;;;;5060019;28;20445;-67
2023/05/26 03:39:04;;;;;;;10.60;3.40;;;;;;;;;;5059927;28;20500;-65
2023/05/26 03:41:34;;;;;;;11.30;3.70;;;12.20;99.90;;;;;;5053145;28;20451;-66
2023/05/26 03:44:01;;;;;;;11.03;3.60;;;;;;;;;;5060305;28;20450;-68
2023/05/26 03:46:29;;;;;;;13.47;4.63;;;12.40;99.90;;;;;;5059538;28;20440;-69
2023/05/26 03:48:57;;;;;;;8.97;3.30;;;;;;;;;;5059669;28;20436;-66
2023/05/26 03:51:24;;;;;;;13.90;4.03;;;;;;;;;;5059205;28;20447;-63
2023/05/26 03:53:51;;;;;;;12.63;4.13;;;;;;;;;;5058981;28;20531;-68
2023/05/26 03:56:18;;;;;;;14.80;4.20;;;;;;;;;;5058897;28;20470;-71
2023/05/26 03:58:46;;;;;;;6.40;3.20;;;;;;;;;;5059707;28;20455;-68
2023/05/26 04:01:15;;;;;;;23.07;5.13;;;;;;;;;;5059455;28;20464;-63
2023/05/26 04:03:44;;;;;;;10.73;3.07;;;12.50;99.90;;;;;;5059844;28;20455;-64
2023/05/26 04:06:11;;;;;;;8.10;4.00;;;;;;;;;;5059161;28;20550;-66
2023/05/26 04:08:38;;;;;;;15.50;5.93;;;;;;;;;;5059319;28;20467;-67
2023/05/26 04:11:05;;;;;;;10.60;3.57;;;;;;;;;;5058872;28;20479;-64
2023/05/26 04:13:33;;;;;;;11.70;4.80;;;12.50;99.90;;;;;;5059751;28;20445;-66
2023/05/26 04:16:07;;;;;;;9.00;3.60;;;;;;;;;;5059191;28;20460;-64
2023/05/26 04:18:36;;;;;;;12.60;4.07;;;;;;;;;;5059117;28;20450;-67
2023/05/26 04:21:04;;;;;;;18.10;3.70;;;;;;;;;;5058554;28;20491;-68
2023/05/26 04:23:31;;;;;;;17.67;4.17;;;;;;;;;;5059115;28;20444;-67
2023/05/26 04:26:00;;;;;;;15.37;5.17;;;;;;;;;;5058071;28;20794;-66
2023/05/26 04:28:29;;;;;;;16.00;4.00;;;;;;;;;;5058587;28;20454;-64
2023/05/26 04:30:57;;;;;;;9.23;3.80;;;;;;;;;;5058970;28;20456;-61
2023/05/26 04:33:24;;;;;;;14.93;3.03;;;;;;;;;;5058895;28;20428;-67
2023/05/26 04:35:51;;;;;;;11.67;4.00;;;;;;;;;;5058704;28;20456;-67
2023/05/26 04:38:20;;;;;;;13.37;4.60;;;12.70;99.90;;;;;;5058760;28;20424;-67
2023/05/26 04:40:49;;;;;;;23.47;4.03;;;12.70;99.90;;;;;;5057883;28;20477;-65
2023/05/26 04:43:16;;;;;;;9.00;4.00;;;;;;;;;;5058612;28;20411;-64
2023/05/26 04:45:43;;;;;;;9.67;3.70;;;;;;;;;;5057911;28;20483;-63
2023/05/26 04:48:13;;;;;;;12.53;3.40;;;12.70;99.90;;;;;;5057903;28;20442;-65
2023/05/26 04:50:40;;;;;;;12.03;4.60;;;;;;;;;;5059168;28;20904;-61
2023/05/26 04:53:08;;;;;;;17.47;3.70;;;;;;;;;;5058840;28;20463;-65
2023/05/26 04:55:44;;;;;;;17.47;3.90;;;12.90;99.90;;;;;;5058884;28;20441;-65
2023/05/26 04:58:13;;;;;;;13.30;4.30;;;12.80;99.90;;;;;;5058753;28;20420;-62
2023/05/26 05:00:40;;;;;;;15.93;3.27;;;;;;;;;;5058329;28;20440;-64
2023/05/26 05:03:07;;;;;;;11.07;3.27;;;;;;;;;;5058157;28;20468;-67
2023/05/26 05:05:34;;;;;;;4.80;3.23;;;;;;;;;;5058211;28;20495;-64
2023/05/26 05:08:04;;;;;;;12.23;6.10;;;12.80;99.90;;;;;;5058492;28;20468;-67
2023/05/26 05:10:31;;;;;;;9.90;3.20;;;;;;;;;;5057720;28;20444;-62
2023/05/26 05:13:01;;;;;;;8.87;3.30;;;12.80;99.90;;;;;;5057168;28;20435;-71
2023/05/26 05:15:28;;;;;;;10.63;4.37;;;;;;;;;;5078268;23;20491;-61
2023/05/26 05:17:56;;;;;;;10.23;3.47;;;;;;;;;;5057152;28;20448;-60
2023/05/26 05:20:24;;;;;;;14.30;4.90;;;;;;;;;;5057837;28;20440;-58
2023/05/26 05:22:53;;;;;;;13.47;4.50;;;13.10;99.90;;;;;;5056609;28;20491;-62
2023/05/26 05:25:20;;;;;;;13.10;3.43;;;;;;;;;;5057291;28;20480;-60
2023/05/26 05:27:48;;;;;;;11.37;3.53;;;;;;;;;;5057925;28;20471;-57
2023/05/26 05:30:17;;;;;;;18.73;3.80;;;;;;;;;;5057676;28;20440;-61
2023/05/26 05:32:45;;;;;;;24.37;5.27;;;;;;;;;;5055984;28;20460;-63
2023/05/26 05:35:12;;;;;;;8.30;3.57;;;;;;;;;;5057609;28;20431;-64
2023/05/26 05:37:39;;;;;;;7.10;3.07;;;;;;;;;;5055299;28;20464;-64
2023/05/26 05:40:07;;;;;;;13.20;5.20;;;13.70;99.90;;;;;;5054034;28;20470;-59
2023/05/26 05:42:34;;;;;;;17.67;4.80;;;;;;;;;;5056789;28;20472;-64
2023/05/26 05:45:02;;;;;;;9.13;4.03;;;;;;;;;;5056022;28;20472;-62
2023/05/26 05:47:30;;;;;;;10.07;3.63;;;;;;;;;;5057387;28;20479;-64
2023/05/26 05:49:57;;;;;;;9.67;3.00;;;;;;;;;;5056938;28;20444;-62
2023/05/26 05:52:24;;;;;;;12.53;3.93;;;;;;;;;;5057534;28;20476;-63
2023/05/26 05:54:52;;;;;;;7.93;4.07;;;;;;;;;;5056625;28;20449;-58
2023/05/26 05:57:19;;;;;;;14.27;3.23;;;;;;;;;;5057414;28;20433;-56
2023/05/26 05:59:46;;;;;;;9.87;4.47;;;;;;;;;;5057870;28;20432;-60
2023/05/26 06:02:13;;;;;;;6.90;2.73;;;;;;;;;;5057346;28;20463;-63
2023/05/26 06:04:41;;;;;;;10.23;4.23;;;14.00;99.90;;;;;;5056126;28;20428;-61
2023/05/26 06:07:09;;;;;;;16.60;4.10;;;;;;;;;;5056694;28;20424;-60
2023/05/26 06:09:37;;;;;;;6.97;3.10;;;14.10;99.90;;;;;;5057115;28;20448;-62
2023/05/26 06:12:06;;;;;;;6.23;3.40;;;14.00;99.90;;;;;;5057418;28;20460;-61
2023/05/26 06:14:33;;;;;;;9.20;3.50;;;;;;;;;;5052939;28;20490;-63
2023/05/26 06:17:00;;;;;;;9.73;3.57;;;;;;;;;;5054609;28;20452;-61
2023/05/26 06:19:27;;;;;;;7.77;3.27;;;;;;;;;;5056396;28;20476;-58
2023/05/26 06:21:56;;;;;;;6.33;3.63;;;;;;;;;;5056495;28;20437;-61
2023/05/26 06:24:23;;;;;;;20.63;3.27;;;;;;;;;;5052594;28;20468;-64
2023/05/26 06:26:50;;;;;;;9.77;3.23;;;;;;;;;;5054012;28;20460;-61
2023/05/26 06:29:17;;;;;;;16.70;4.13;;;;;;;;;;5051620;28;20480;-61
2023/05/26 06:31:46;;;;;;;9.03;3.60;;;14.70;99.90;;;;;;5056352;28;20436;-62
2023/05/26 06:34:13;;;;;;;16.77;4.13;;;;;;;;;;5054886;28;20972;-62
2023/05/26 06:36:40;;;;;;;8.33;2.93;;;;;;;;;;5053343;28;20471;-60
2023/05/26 06:39:11;;;;;;;5.80;2.57;;;15.00;99.90;;;;;;5056176;28;20547;-61
2023/05/26 06:41:38;;;;;;;18.53;3.63;;;;;;;;;;5054285;28;20447;-64
2023/05/26 06:44:05;;;;;;;14.10;3.60;;;;;;;;;;5055955;28;20472;-62
2023/05/26 06:46:32;;;;;;;11.43;3.90;;;;;;;;;;5056384;28;20475;-60
2023/05/26 06:48:59;;;;;;;9.53;3.00;;;;;;;;;;5055186;28;20472;-63
2023/05/26 06:51:27;;;;;;;16.17;3.40;;;;;;;;;;5052096;28;20456;-64
2023/05/26 06:53:54;;;;;;;13.83;3.63;;;;;;;;;;5053867;28;20495;-62
2023/05/26 06:56:22;;;;;;;10.10;2.87;;;15.50;99.90;;;;;;5052402;28;20424;-62
2023/05/26 06:58:49;;;;;;;8.47;3.13;;;;;;;;;;5055875;28;20444;-59
2023/05/26 07:01:16;;;;;;;10.20;2.80;;;;;;;;;;5052230;28;20468;-61
2023/05/26 07:03:43;;;;;;;12.97;3.67;;;;;;;;;;5055594;28;20440;-64
2023/05/26 07:06:11;;;;;;;16.40;3.80;;;;;;;;;;5053251;28;20510;-62
2023/05/26 07:08:38;;;;;;;10.50;3.17;;;;;;;;;;5055667;28;20486;-58
2023/05/26 07:11:06;;;;;;;17.40;3.87;;;;;;;;;;5055403;28;20449;-59
2023/05/26 07:13:35;;;;;;;7.70;2.83;;;16.90;99.90;;;;;;5055872;28;20452;-59
2023/05/26 07:16:02;;;;;;;14.53;4.07;;;;;;;;;;5054798;28;20428;-62
2023/05/26 07:18:29;;;;;;;14.93;3.10;;;;;;;;;;5054566;28;20451;-62
2023/05/26 07:20:57;;;;;;;12.63;3.37;;;;;;;;;;5055856;28;20467;-61
2023/05/26 07:23:24;;;;;;;13.63;3.00;;;;;;;;;;5055626;28;20453;-62
2023/05/26 07:25:51;;;;;;;10.47;3.40;;;;;;;;;;5054989;28;20502;-61
2023/05/26 07:28:18;;;;;;;13.20;3.43;;;;;;;;;;5053636;28;20427;-65
2023/05/26 07:30:48;;;;;;;6.70;2.53;;;26.50;99.90;;;;;;5048871;28;20506;-63
2023/05/26 07:33:16;;;;;;;15.87;7.13;;;;;;;;;;5053375;28;20445;-64
2023/05/26 07:35:43;;;;;;;11.77;3.10;;;;;;;;;;5052252;28;20493;-63
2023/05/26 07:38:10;;;;;;;8.17;4.10;;;;;;;;;;5051877;28;20459;-59
2023/05/26 07:40:39;;;;;;;7.20;3.03;;;;;;;;;;5048698;28;20470;-61
2023/05/26 07:43:06;;;;;;;21.47;4.80;;;;;;;;;;5041082;28;20467;-65
2023/05/26 07:45:33;;;;;;;7.57;3.17;;;;;;;;;;5039563;28;20491;-64
2023/05/26 07:48:01;;;;;;;19.00;4.03;;;28.60;62.40;;;;;;5042463;28;20472;-65
2023/05/26 07:50:28;;;;;;;4.23;2.50;;;;;;;;;;5042604;28;20469;-67
2023/05/26 07:52:56;;;;;;;9.90;3.10;;;;;;;;;;5041055;28;20463;-65
2023/05/26 07:55:23;;;;;;;9.27;3.20;;;;;;;;;;5050590;28;20472;-62
2023/05/26 07:57:50;;;;;;;9.80;3.67;;;;;;;;;;5042122;28;20464;-67
2023/05/26 08:00:17;;;;;;;11.57;4.10;;;;;;;;;;5048836;28;20466;-62
2023/05/26 08:02:45;;;;;;;11.20;3.27;;;;;;;;;;5047714;28;20436;-66
2023/05/26 08:05:13;;;;;;;9.33;3.70;;;;;;;;;;5051612;28;20447;-65
2023/05/26 08:07:40;;;;;;;10.57;3.47;;;;;;;;;;5049699;28;20519;-64
2023/05/26 08:10:08;;;;;;;8.47;3.20;;;;;;;;;;5047223;28;20444;-63
2023/05/26 08:12:37;;;;;;;9.53;2.87;;;29.10;58.90;;;;;;5052262;28;20455;-65
2023/05/26 08:15:04;;;;;;;8.30;3.00;;;;;;;;;;5055448;28;20433;-65
2023/05/26 08:17:31;;;;;;;11.57;2.90;;;;;;;;;;5046340;28;20448;-62
2023/05/26 08:19:58;;;;;;;6.10;3.30;;;;;;;;;;5046228;28;20500;-63
2023/05/26 08:22:27;;;;;;;12.97;3.10;;;28.60;58.70;;;;;;5055006;28;20483;-65
2023/05/26 08:24:54;;;;;;;11.30;3.30;;;;;;;;;;5048223;28;20465;-65
2023/05/26 08:27:21;;;;;;;14.30;3.40;;;;;;;;;;5050811;28;20494;-65
2023/05/26 08:29:48;;;;;;;9.00;3.23;;;;;;;;;;5046495;28;20479;-66
2023/05/26 08:32:17;;;;;;;10.00;3.57;;;;;;;;;;5049143;28;20476;-65
2023/05/26 08:34:44;;;;;;;6.37;3.10;;;;;;;;;;5046323;28;20448;-64
2023/05/26 08:37:13;;;;;;;7.67;3.00;;;;;;;;;;5046215;28;20483;-60
2023/05/26 08:39:42;;;;;;;10.60;3.50;;;29.20;58.90;;;;;;5054401;28;20448;-63
2023/05/26 08:42:13;;;;;;;14.77;2.63;;;28.90;58.40;;;;;;5054332;28;20495;-60
2023/05/26 08:44:40;;;;;;;9.60;2.83;;;;;;;;;;5054484;28;20433;-65
2023/05/26 08:47:11;;;;;;;9.03;3.13;;;28.50;58.70;;;;;;5055166;28;20492;-60
2023/05/26 08:49:41;;;;;;;8.03;3.00;;;28.30;58.90;;;;;;5054239;28;20460;-64
2023/05/26 08:52:11;;;;;;;18.13;3.73;;;28.30;59.50;;;;;;5054366;28;20464;-61
2023/05/26 08:54:38;;;;;;;12.03;3.37;;;;;;;;;;5054901;28;20467;-61
2023/05/26 08:57:07;;;;;;;9.87;3.33;;;28.40;59.00;;;;;;5053765;28;20752;-65
2023/05/26 08:59:35;;;;;;;4.87;2.90;;;;;;;;;;5053695;28;20443;-64
2023/05/26 09:02:02;;;;;;;8.07;3.47;;;;;;;;;;5050076;28;20475;-62
2023/05/26 09:04:32;;;;;;;10.83;2.47;;;;;;;;;;5053350;28;20448;-62
2023/05/26 09:07:00;;;;;;;6.83;2.97;;;;;;;;;;5054289;28;20484;-64
2023/05/26 09:09:27;;;;;;;10.63;3.10;;;;;;;;;;5046916;28;20428;-65
2023/05/26 09:11:56;;;;;;;8.00;3.07;;;;;;;;;;5045031;28;20479;-65
2023/05/26 09:14:25;;;;;;;8.90;3.63;;;28.40;56.40;;;;;;5046856;28;20464;-63
2023/05/26 09:16:54;;;;;;;8.50;2.47;;;;;;;;;;5045477;28;20773;-64
2023/05/26 09:19:24;;;;;;;7.30;4.40;;;;;;;;;;5042329;28;20445;-65
2023/05/26 09:21:53;;;;;;;7.00;2.40;;;28.50;56.20;;;;;;5049040;28;20452;-63
2023/05/26 09:24:23;;;;;;;6.47;2.40;;;28.50;55.90;;;;;;5054614;28;20483;-64
2023/05/26 09:26:51;;;;;;;8.43;3.00;;;28.60;55.80;;;;;;5054428;28;20460;-62
2023/05/26 09:29:20;;;;;;;7.20;2.83;;;;;;;;;;5047399;28;20444;-63
2023/05/26 09:31:49;;;;;;;7.17;2.30;;;28.40;55.00;;;;;;5054319;28;20442;-65
2023/05/26 09:34:21;;;;;;;6.40;2.33;;;28.40;53.30;;;;;;5048508;28;20812;-64
2023/05/26 09:36:48;;;;;;;9.13;2.60;;;;;;;;;;5051811;28;20441;-60
2023/05/26 09:39:15;;;;;;;5.90;2.87;;;;;;;;;;5053067;28;20443;-63
2023/05/26 09:41:44;;;;;;;10.17;3.50;;;28.60;54.30;;;;;;5047156;28;20508;-63
2023/05/26 09:44:12;;;;;;;8.30;4.07;;;28.50;55.10;;;;;;5042714;28;20444;-65
2023/05/26 09:46:40;;;;;;;7.60;2.70;;;;;;;;;;5045603;28;20472;-63
2023/05/26 09:49:13;;;;;;;5.50;2.10;;;28.90;52.60;;;;;;5051615;28;20750;-57
2023/05/26 09:51:41;;;;;;;4.67;2.30;;;28.90;50.90;;;;;;5048496;28;20444;-63
2023/05/26 09:54:09;;;;;;;5.93;3.03;;;;;;;;;;5041506;28;20472;-63
2023/05/26 09:56:41;;;;;;;5.03;1.97;;;28.30;53.50;;;;;;5045511;28;20455;-64
2023/05/26 09:59:10;;;;;;;9.10;2.63;;;28.30;53.30;;;;;;5046473;28;20503;-56
2023/05/26 10:01:38;;;;;;;9.03;2.00;;;;;;;;;;5052661;28;20456;-62
2023/05/26 10:04:08;;;;;;;5.90;2.47;;;;;;;;;;5047630;28;20464;-63
2023/05/26 10:06:37;;;;;;;7.23;2.00;;;28.10;51.10;;;;;;5043429;28;20480;-62
2023/05/26 10:09:06;;;;;;;7.70;2.90;;;28.10;51.80;;;;;;5044323;28;20472;-63
2023/05/26 10:11:38;;;;;;;4.40;2.40;;;27.80;52.30;;;;;;5044163;28;20448;-64
2023/05/26 10:14:05;;;;;;;9.70;2.60;;;;;;;;;;5043500;28;20475;-63
2023/05/26 10:16:32;;;;;;;9.53;2.80;;;;;;;;;;5048223;28;20452;-57
2023/05/26 10:19:00;;;;;;;7.67;2.90;;;;;;;;;;5053307;28;20471;-62
2023/05/26 10:21:31;;;;;;;9.53;2.87;;;27.50;51.90;;;;;;5050803;28;20452;-61
2023/05/26 10:24:05;;;;;;;7.33;2.80;;;27.30;53.20;;;;;;5036263;28;20468;-63
2023/05/26 10:26:41;;;;;;;5.30;2.53;;;27.00;53.80;;;;;;5044691;28;20480;-66
2023/05/26 10:29:11;;;;;;;9.77;2.60;;;27.00;53.80;;;;;;5046989;28;20467;-60
2023/05/26 10:31:40;;;;;;;6.80;2.67;;;;;;;;;;5053491;28;20463;-63
2023/05/26 10:34:13;;;;;;;7.07;2.00;;;27.20;53.60;;;;;;5051876;28;20478;-65
2023/05/26 10:36:41;;;;;;;7.97;3.07;;;;;;;;;;5051304;28;20416;-63
2023/05/26 10:39:12;;;;;;;4.57;2.57;;;27.30;52.70;;;;;;5052456;28;20492;-63
2023/05/26 10:41:41;;;;;;;6.00;3.83;;;26.90;54.00;;;;;;5041268;28;20527;-64
2023/05/26 10:44:45;;;;;;;8.60;2.87;;;26.40;54.60;;;;;;5039590;28;20855;-64
2023/05/26 10:47:16;;;;;;;3.47;2.13;;;26.10;55.70;;;;;;5051565;28;20595;-64
2023/05/26 10:49:55;;;;;;;7.63;2.43;;;26.00;55.00;;;;;;5053290;28;20479;-63
2023/05/26 10:52:26;;;;;;;7.07;2.90;;;25.40;53.10;;;;;;5053336;28;20454;-62
2023/05/26 10:54:53;;;;;;;7.67;3.07;;;;;;;;;;5048731;28;20494;-61
2023/05/26 10:57:31;;;;;;;8.73;3.07;;;24.70;51.00;;;;;;5054310;28;20475;-61
2023/05/26 10:59:58;;;;;;;6.67;2.40;;;;;;;;;;5052915;28;20483;-64
2023/05/26 11:02:27;;;;;;;7.97;3.23;;;24.80;58.20;;;;;;5046751;28;20440;-63
2023/05/26 11:04:54;;;;;;;8.83;2.60;;;;;;;;;;5046836;28;20476;-61
2023/05/26 11:07:27;;;;;;;6.20;2.37;;;24.70;52.40;;;;;;5047548;28;20484;-65
2023/05/26 11:09:59;;;;;;;9.13;3.03;;;24.90;57.80;;;;;;5047339;28;20467;-63
2023/05/26 11:12:26;;;;;;;10.63;2.10;;;;;;;;;;5047609;28;20424;-64
2023/05/26 11:14:54;;;;;;;10.10;2.70;;;;;;;;;;5047043;28;20471;-63
2023/05/26 11:17:21;;;;;;;13.07;2.87;;;24.70;58.20;;;;;;5047328;28;20432;-62
2023/05/26 11:19:58;;;;;;;19.07;3.40;;;24.60;59.40;;;;;;5047651;28;20464;-64
2023/05/26 11:22:27;;;;;;;5.87;1.83;;;24.40;58.70;;;;;;5051133;28;20462;-62
2023/05/26 11:24:56;;;;;;;4.27;2.10;;;24.50;59.00;;;;;;5053932;28;20436;-61
2023/05/26 11:27:25;;;;;;;7.10;2.83;;;;;;;;;;5054570;28;20544;-60
2023/05/26 11:30:00;;;;;;;6.40;2.63;;;24.10;58.50;;;;;;5054471;28;20436;-62
2023/05/26 11:32:28;;;;;;;13.90;2.83;;;;;;;;;;5054409;28;20427;-63
2023/05/26 11:34:57;;;;;;;8.70;3.10;;;;;;;;;;5055628;28;20454;-57
2023/05/26 11:37:26;;;;;;;7.47;2.97;;;24.10;51.10;;;;;;5058398;28;20436;-61
2023/05/26 11:39:56;;;;;;;4.10;2.27;;;24.10;50.10;;;;;;5058172;28;20472;-59
2023/05/26 11:42:23;;;;;;;6.23;3.47;;;24.20;81.50;;;;;;5053042;28;20444;-62
2023/05/26 11:44:50;;;;;;;11.80;4.80;;;;;;;;;;5051139;28;20440;-62
2023/05/26 11:47:22;;;;;;;7.63;3.53;;;23.80;91.30;;;;;;5048781;28;20476;-63
2023/05/26 11:49:49;;;;;;;6.43;3.73;;;;;;;;;;5051764;28;20436;-63
2023/05/26 11:52:17;;;;;;;17.33;4.13;;;23.80;91.00;;;;;;5048367;28;20468;-64
2023/05/26 11:54:45;;;;;;;5.13;2.80;;;;;;;;;;5053124;28;20707;-56
2023/05/26 11:57:30;;;;;;;13.93;2.70;;;23.30;51.50;;;;;;5050894;28;20468;-62
2023/05/26 12:00:09;;;;;;;8.30;2.67;;;22.90;67.80;;;;;;5049728;28;20455;-63
2023/05/26 12:02:36;;;;;;;6.93;2.80;;;23.00;85.20;;;;;;5049930;28;20436;-63
2023/05/26 12:05:17;;;;;;;11.77;3.60;;;23.00;65.20;;;;;;5046776;28;20440;-63
2023/05/26 12:07:46;;;;;;;6.00;3.10;;;23.20;50.80;;;;;;5048249;28;20534;-60
2023/05/26 12:10:13;;;;;;;5.27;2.50;;;;;;;;;;5058242;28;20432;-63
2023/05/26 12:12:50;;;;;;;6.00;3.10;;;23.30;75.70;;;;;;5051972;28;20498;-60
2023/05/26 12:15:20;;;;;;;11.33;2.77;;;;;;;;;;5051025;28;20451;-64
2023/05/26 12:17:47;;;;;;;6.20;2.60;;;;;;;;;;5051511;28;20510;-63
2023/05/26 12:20:18;;;;;;;7.67;2.23;;;22.80;51.90;;;;;;5050691;28;20452;-63
2023/05/26 12:22:50;;;;;;;9.17;4.97;;;22.70;51.60;;;;;;5050982;28;20463;-62
2023/05/26 12:25:24;;;;;;;9.23;2.80;;;22.70;90.30;;;;;;5052437;28;20420;-63
2023/05/26 12:27:52;;;;;;;5.53;1.83;;;23.00;47.70;;;;;;5046576;28;20496;-64
2023/05/26 12:30:21;;;;;;;5.40;2.43;;;23.10;57.00;;;;;;5049662;28;20447;-63
2023/05/26 12:32:49;;;;;;;5.53;2.57;;;;;;;;;;5046309;28;20547;-62
2023/05/26 12:35:16;;;;;;;6.80;2.10;;;;;;;;;;5049123;28;20456;-62
2023/05/26 12:37:44;;;;;;;6.50;2.50;;;;;;;;;;5048958;28;20488;-62
2023/05/26 12:40:14;;;;;;;9.07;2.53;;;27.00;50.30;;;;;;5049899;28;20514;-61
2023/05/26 12:42:42;;;;;;;6.43;2.60;;;;;;;;;;5057431;28;20530;-56
2023/05/26 12:45:09;;;;;;;4.37;2.10;;;23.00;44.60;;;;;;5056644;28;20485;-64
2023/05/26 12:47:38;;;;;;;5.67;2.50;;;;;;;;;;5050183;28;20484;-62
2023/05/26 12:50:05;;;;;;;10.43;2.63;;;23.10;82.50;;;;;;5050111;28;20444;-62
2023/05/26 12:52:33;;;;;;;7.97;2.60;;;;;;;;;;5049776;28;20476;-64
2023/05/26 12:55:00;;;;;;;3.90;1.77;;;;;;;;;;5049362;28;20444;-61
2023/05/26 12:57:28;;;;;;;3.80;2.27;;;23.20;46.50;;;;;;5050296;28;20522;-64
2023/05/26 12:59:55;;;;;;;7.37;2.80;;;;;;;;;;5050791;28;20475;-63
2023/05/26 13:02:23;;;;;;;7.80;2.57;;;;;;;;;;5050415;28;20475;-64
2023/05/26 13:04:50;;;;;;;4.00;2.40;;;;;;;;;;5050519;28;20451;-63
2023/05/26 13:07:19;;;;;;;10.57;2.13;;;23.30;55.20;;;;;;5050115;28;20483;-63
2023/05/26 13:09:47;;;;;;;5.47;3.27;;;;;;;;;;5050250;28;20440;-64
2023/05/26 13:12:14;;;;;;;4.63;2.67;;;;;;;;;;5050495;28;20470;-64
2023/05/26 13:14:42;;;;;;;9.27;2.90;;;23.20;56.10;;;;;;5048285;28;20475;-64
2023/05/26 13:17:10;;;;;;;5.13;2.03;;;;;;;;;;5056179;28;20444;-62
2023/05/26 13:19:37;;;;;;;4.50;2.37;;;;;;;;;;5051843;28;20444;-63
2023/05/26 13:22:05;;;;;;;4.37;2.53;;;;;;;;;;5044287;28;20476;-59
2023/05/26 13:24:32;;;;;;;5.40;2.20;;;;;;;;;;5046173;28;20491;-61
2023/05/26 13:26:59;;;;;;;2.40;1.80;;;;;;;;;;5057521;28;20455;-58
2023/05/26 13:29:26;;;;;;;5.60;1.90;;;;;;;;;;5056382;28;20460;-63
2023/05/26 13:31:55;;;;;;;6.50;2.13;;;23.30;54.60;;;;;;5057545;28;20444;-62
2023/05/26 13:34:22;;;;;;;6.80;2.90;;;;;;;;;;5057715;28;20448;-61
2023/05/26 13:36:50;;;;;;;5.30;2.57;;;;;;;;;;5057505;28;20520;-60
2023/05/26 13:39:17;;;;;;;8.70;2.37;;;;;;;;;;5056821;28;20459;-59
2023/05/26 13:41:44;;;;;;;10.10;3.53;;;;;;;;;;5057583;28;20428;-59
2023/05/26 13:44:12;;;;;;;4.50;2.40;;;;;;;;;;5055948;28;20464;-62
2023/05/26 13:46:40;;;;;;;8.20;2.47;;;;;;;;;;5053618;28;20448;-63
2023/05/26 13:49:08;;;;;;;3.87;2.03;;;23.10;55.30;;;;;;5054667;28;20598;-60
2023/05/26 13:51:35;;;;;;;4.90;2.50;;;;;;;;;;5053927;28;20435;-61
2023/05/26 13:54:02;;;;;;;4.80;1.77;;;;;;;;;;5057434;28;20468;-59
2023/05/26 13:56:30;;;;;;;5.00;2.27;;;;;;;;;;5057740;28;20451;-60
2023/05/26 13:58:57;;;;;;;6.60;2.20;;;;;;;;;;5054813;28;20527;-62